createdAt,value
2023-04-26T00:01:04.196Z,3.70
2023-04-26T00:03:31.680Z,4.75
2023-04-26T00:06:03.911Z,4.70
2023-04-26T00:08:31.214Z,4.00
2023-04-26T00:10:58.490Z,4.43
2023-04-26T00:13:25.851Z,4.47
2023-04-26T00:15:53.297Z,5.20
2023-04-26T00:18:20.624Z,3.97
2023-04-26T00:20:47.906Z,4.75
2023-04-26T00:23:15.246Z,5.25
2023-04-26T00:25:42.650Z,4.72
2023-04-26T00:28:10.013Z,5.22
2023-04-26T00:30:41.172Z,4.85
2023-04-26T00:33:10.028Z,5.57
2023-04-26T00:35:38.267Z,4.75
2023-04-26T00:38:05.560Z,4.57
2023-04-26T00:40:35.482Z,4.32
2023-04-26T00:43:03.617Z,4.35
2023-04-26T00:45:31.649Z,4.55
2023-04-26T00:48:00.475Z,5.00
2023-04-26T00:50:27.890Z,4.15
2023-04-26T00:52:55.927Z,5.13
2023-04-26T00:55:23.442Z,4.63
2023-04-26T00:57:53.348Z,4.15
2023-04-26T01:00:21.478Z,4.75
2023-04-26T01:02:48.866Z,5.00
2023-04-26T01:05:16.524Z,5.13
2023-04-26T01:07:44.917Z,4.67
2023-04-26T01:10:12.366Z,4.88
2023-04-26T01:12:39.979Z,4.22
2023-04-26T01:15:07.527Z,5.00
2023-04-26T01:17:34.843Z,4.43
2023-04-26T01:20:02.171Z,5.03
2023-04-26T01:22:33.187Z,5.72
2023-04-26T01:25:01.798Z,4.90
2023-04-26T01:27:29.209Z,5.70
2023-04-26T01:29:56.532Z,5.13
2023-04-26T01:32:24.059Z,8.63
2023-04-26T01:34:51.320Z,5.18
2023-04-26T01:37:19.382Z,6.10
2023-04-26T01:39:46.757Z,5.75
2023-04-26T01:42:14.000Z,4.90
2023-04-26T01:44:41.376Z,5.18
2023-04-26T01:47:08.637Z,5.07
2023-04-26T01:49:36.102Z,6.03
2023-04-26T01:52:03.515Z,5.50
2023-04-26T01:54:30.817Z,5.95
2023-04-26T01:57:00.640Z,6.15
2023-04-26T01:59:28.415Z,4.85
2023-04-26T02:01:55.706Z,5.07
2023-04-26T02:04:24.276Z,6.03
2023-04-26T02:06:51.588Z,4.93
2023-04-26T02:09:19.003Z,5.22
2023-04-26T02:11:46.263Z,6.95
2023-04-26T02:14:13.706Z,6.00
2023-04-26T02:16:40.963Z,6.82
2023-04-26T02:19:10.885Z,6.72
2023-04-26T02:21:57.984Z,6.70
2023-04-26T02:24:25.886Z,5.20
2023-04-26T02:26:54.614Z,5.82
2023-04-26T02:29:32.691Z,5.65
2023-04-26T02:32:07.873Z,5.38
2023-04-26T02:34:35.496Z,5.88
2023-04-26T02:37:02.859Z,5.13
2023-04-26T02:39:30.249Z,6.55
2023-04-26T02:41:57.769Z,5.45
2023-04-26T02:44:25.301Z,5.25
2023-04-26T02:46:52.663Z,5.07
2023-04-26T02:49:20.162Z,5.78
2023-04-26T02:51:47.616Z,6.07
2023-04-26T02:54:14.961Z,6.05
2023-04-26T02:56:42.192Z,5.75
2023-04-26T02:59:09.526Z,5.45
2023-04-26T03:01:36.896Z,6.00
2023-04-26T03:04:04.627Z,5.45
2023-04-26T03:06:33.492Z,5.45
2023-04-26T03:09:01.074Z,5.60
2023-04-26T03:11:28.560Z,5.30
2023-04-26T03:13:55.804Z,7.55
2023-04-26T03:16:23.823Z,6.20
2023-04-26T03:18:51.513Z,7.65
2023-04-26T03:21:19.113Z,5.18
2023-04-26T03:23:47.446Z,5.38
2023-04-26T03:26:15.407Z,6.55
2023-04-26T03:28:42.624Z,5.45
2023-04-26T03:31:09.930Z,4.88
2023-04-26T03:33:37.705Z,5.40
2023-04-26T03:36:06.384Z,4.70
2023-04-26T03:38:33.999Z,4.65
2023-04-26T03:41:01.526Z,5.78
2023-04-26T03:43:28.755Z,5.78
2023-04-26T03:45:56.126Z,5.63
2023-04-26T03:48:23.455Z,4.93
2023-04-26T03:50:51.034Z,4.95
2023-04-26T03:53:18.285Z,4.38
2023-04-26T03:55:45.767Z,4.88
2023-04-26T03:58:14.074Z,6.18
2023-04-26T04:00:43.502Z,5.07
2023-04-26T04:03:11.355Z,6.57
2023-04-26T04:05:38.828Z,6.28
2023-04-26T04:08:06.589Z,6.93
2023-04-26T04:10:33.847Z,5.47
2023-04-26T04:13:01.375Z,4.95
2023-04-26T04:15:28.822Z,5.85
2023-04-26T04:17:56.248Z,5.22
2023-04-26T04:20:23.749Z,5.13
2023-04-26T04:22:52.517Z,5.88
2023-04-26T04:25:22.266Z,5.00
2023-04-26T04:27:50.296Z,6.63
2023-04-26T04:30:17.883Z,6.07
2023-04-26T04:32:46.799Z,5.30
2023-04-26T04:35:15.591Z,5.70
2023-04-26T04:37:43.921Z,4.30
2023-04-26T04:40:13.430Z,4.75
2023-04-26T04:42:44.544Z,6.35
2023-04-26T04:45:11.995Z,6.72
2023-04-26T04:47:40.367Z,5.47
2023-04-26T04:50:08.090Z,5.05
2023-04-26T04:52:36.020Z,5.60
2023-04-26T04:55:04.273Z,4.93
2023-04-26T04:57:32.585Z,4.50
2023-04-26T05:00:07.839Z,5.28
2023-04-26T05:02:36.838Z,4.82
2023-04-26T05:05:05.074Z,4.63
2023-04-26T05:07:33.144Z,6.13
2023-04-26T05:10:02.057Z,4.20
2023-04-26T05:12:29.762Z,4.65
2023-04-26T05:14:57.030Z,5.30
2023-04-26T05:17:24.292Z,6.55
2023-04-26T05:19:51.809Z,4.13
2023-04-26T05:22:21.259Z,4.22
2023-04-26T05:24:49.074Z,3.92
2023-04-26T05:27:16.380Z,4.00
2023-04-26T05:30:05.876Z,4.07
2023-04-26T05:32:57.254Z,5.32
2023-04-26T05:35:43.066Z,4.45
2023-04-26T05:38:10.344Z,3.95
2023-04-26T05:40:37.640Z,4.50
2023-04-26T05:43:06.913Z,4.40
2023-04-26T05:45:36.172Z,4.32
2023-04-26T05:48:03.715Z,4.65
2023-04-26T05:50:31.414Z,3.85
2023-04-26T05:52:58.823Z,4.20
2023-04-26T05:55:26.085Z,3.63
2023-04-26T05:57:53.904Z,3.92
2023-04-26T06:00:23.456Z,4.30
2023-04-26T06:02:50.874Z,3.70
2023-04-26T06:05:18.831Z,4.03
2023-04-26T06:07:46.441Z,3.40
2023-04-26T06:10:13.764Z,3.00
2023-04-26T06:12:41.694Z,2.80
2023-04-26T06:15:09.677Z,3.60
2023-04-26T06:17:39.399Z,4.35
2023-04-26T06:20:07.067Z,3.47
2023-04-26T06:22:34.278Z,3.05
2023-04-26T06:25:01.787Z,2.92
2023-04-26T06:27:29.253Z,3.72
2023-04-26T06:29:56.512Z,3.40
2023-04-26T06:32:25.870Z,3.10
2023-04-26T06:34:54.969Z,2.92
2023-04-26T06:37:22.267Z,3.10
2023-04-26T06:39:49.632Z,3.05
2023-04-26T06:42:16.976Z,3.20
2023-04-26T06:44:59.137Z,3.50
2023-04-26T06:47:26.480Z,4.05
2023-04-26T06:52:23.885Z,3.42
2023-04-26T06:54:57.090Z,3.17
2023-04-26T06:57:25.967Z,2.85
2023-04-26T06:59:53.172Z,4.05
2023-04-26T07:02:20.519Z,2.80
2023-04-26T07:04:47.868Z,2.97
2023-04-26T07:07:16.573Z,3.30
2023-04-26T07:09:44.580Z,2.83
2023-04-26T07:12:12.614Z,3.15
2023-04-26T07:14:40.767Z,4.03
2023-04-26T07:17:08.295Z,2.90
2023-04-26T07:19:35.659Z,3.25
2023-04-26T07:22:03.519Z,2.58
2023-04-26T07:24:30.837Z,2.70
2023-04-26T07:26:58.151Z,2.70
2023-04-26T07:29:25.545Z,2.60
2023-04-26T07:31:52.849Z,2.83
2023-04-26T07:34:20.063Z,2.60
2023-04-26T07:36:47.818Z,2.60
2023-04-26T07:39:15.510Z,2.45
2023-04-26T07:41:44.199Z,3.03
2023-04-26T07:44:11.595Z,4.72
2023-04-26T07:46:38.907Z,2.90
2023-04-26T07:49:06.571Z,3.60
2023-04-26T07:51:33.856Z,2.45
2023-04-26T07:54:01.953Z,3.20
2023-04-26T07:56:29.220Z,2.95
2023-04-26T07:58:56.594Z,3.55
2023-04-26T08:01:23.850Z,2.60
2023-04-26T08:03:51.302Z,3.08
2023-04-26T08:06:18.886Z,2.90
2023-04-26T08:08:50.374Z,4.47
2023-04-26T08:11:18.344Z,3.10
2023-04-26T08:13:46.303Z,2.90
2023-04-26T08:16:13.741Z,3.20
2023-04-26T08:18:41.059Z,3.75
2023-04-26T08:21:08.374Z,2.70
2023-04-26T08:23:36.622Z,3.75
2023-04-26T08:26:04.027Z,2.90
2023-04-26T08:28:31.514Z,3.33
2023-04-26T08:30:58.867Z,2.45
2023-04-26T08:33:26.498Z,3.13
2023-04-26T08:35:53.857Z,2.55
2023-04-26T08:38:22.755Z,2.40
2023-04-26T08:40:50.171Z,2.58
2023-04-26T08:43:17.728Z,2.50
2023-04-26T08:45:49.203Z,2.42
2023-04-26T08:48:18.360Z,2.00
2023-04-26T08:50:49.320Z,2.28
2023-04-26T08:53:19.900Z,2.83
2023-04-26T08:55:50.636Z,2.25
2023-04-26T08:58:18.586Z,2.10
2023-04-26T09:00:48.865Z,2.95
2023-04-26T09:03:16.332Z,1.70
2023-04-26T09:05:44.329Z,2.47
2023-04-26T09:08:17.659Z,2.08
2023-04-26T09:10:45.218Z,2.30
2023-04-26T09:13:12.932Z,2.33
2023-04-26T09:15:41.383Z,2.55
2023-04-26T09:18:18.491Z,2.88
2023-04-26T09:20:46.218Z,2.88
2023-04-26T09:23:13.517Z,2.60
2023-04-26T09:25:40.800Z,2.72
2023-04-26T09:28:34.405Z,2.83
2023-04-26T09:31:01.964Z,2.50
2023-04-26T09:33:29.186Z,2.92
2023-04-26T09:35:56.646Z,2.63
2023-04-26T09:38:23.909Z,2.70
2023-04-26T09:40:51.710Z,3.10
2023-04-26T09:43:19.985Z,2.70
2023-04-26T09:45:50.953Z,2.55
2023-04-26T09:48:18.652Z,2.70
2023-04-26T09:50:46.475Z,2.40
2023-04-26T09:53:37.334Z,2.83
2023-04-26T09:56:10.669Z,2.22
2023-04-26T09:58:58.994Z,2.00
2023-04-26T10:01:28.336Z,1.95
2023-04-26T10:04:00.469Z,3.55
2023-04-26T10:06:28.894Z,2.40
2023-04-26T10:08:56.660Z,2.58
2023-04-26T10:11:24.090Z,2.88
2023-04-26T10:13:52.089Z,2.15
2023-04-26T10:16:20.141Z,2.35
2023-04-26T10:18:48.077Z,3.25
2023-04-26T10:21:18.068Z,2.70
2023-04-26T10:23:45.735Z,1.90
2023-04-26T10:26:31.939Z,2.53
2023-04-26T10:29:02.595Z,1.80
2023-04-26T10:31:51.190Z,2.30
2023-04-26T10:34:19.699Z,2.40
2023-04-26T10:37:05.580Z,2.25
2023-04-26T10:39:32.829Z,2.00
2023-04-26T10:42:24.070Z,2.75
2023-04-26T10:44:55.765Z,2.17
2023-04-26T10:47:26.139Z,2.08
2023-04-26T10:49:53.597Z,2.50
2023-04-26T10:52:23.026Z,2.20
2023-04-26T10:54:51.212Z,2.60
2023-04-26T10:57:18.760Z,2.80
2023-04-26T11:00:05.959Z,1.75
2023-04-26T11:02:45.297Z,2.55
2023-04-26T11:05:13.625Z,2.20
2023-04-26T11:07:41.158Z,2.83
2023-04-26T11:10:23.259Z,2.30
2023-04-26T11:13:00.123Z,1.90
2023-04-26T11:15:27.418Z,1.98
2023-04-26T11:17:54.631Z,1.92
2023-04-26T11:20:22.006Z,2.15
2023-04-26T11:22:49.232Z,2.67
2023-04-26T11:25:16.535Z,2.70
2023-04-26T11:27:44.175Z,2.72
2023-04-26T11:30:12.399Z,2.22
2023-04-26T11:32:39.645Z,2.25
2023-04-26T11:35:07.138Z,2.42
2023-04-26T11:37:34.967Z,2.25
2023-04-26T11:40:02.220Z,2.70
2023-04-26T11:42:29.445Z,2.58
2023-04-26T11:44:59.573Z,2.42
2023-04-26T11:47:30.815Z,2.58
2023-04-26T11:49:58.319Z,3.03
2023-04-26T11:52:25.731Z,2.72
2023-04-26T11:55:03.777Z,2.20
2023-04-26T11:57:32.943Z,3.28
2023-04-26T12:00:14.829Z,2.65
2023-04-26T12:02:48.954Z,3.88
2023-04-26T12:05:27.023Z,2.40
2023-04-26T12:07:55.735Z,2.28
2023-04-26T12:10:33.051Z,2.58
2023-04-26T12:13:00.778Z,3.33
2023-04-26T12:15:32.193Z,3.58
2023-04-26T12:18:01.208Z,2.25
2023-04-26T12:20:32.495Z,2.85
2023-04-26T12:23:01.019Z,2.22
2023-04-26T12:25:28.527Z,2.17
2023-04-26T12:27:56.181Z,2.42
2023-04-26T12:30:23.652Z,2.38
2023-04-26T12:33:15.708Z,2.10
2023-04-26T12:35:44.840Z,2.08
2023-04-26T12:38:12.604Z,3.03
2023-04-26T12:40:40.100Z,2.00
2023-04-26T12:43:07.421Z,2.22
2023-04-26T12:45:35.332Z,2.72
2023-04-26T12:48:02.662Z,2.47
2023-04-26T12:50:29.937Z,1.95
2023-04-26T12:52:57.199Z,2.60
2023-04-26T12:55:25.097Z,2.78
2023-04-26T12:57:52.491Z,2.35
2023-04-26T13:00:21.508Z,3.25
2023-04-26T13:02:48.960Z,3.00
2023-04-26T13:05:16.901Z,3.20
2023-04-26T13:07:44.888Z,3.00
2023-04-26T13:10:13.317Z,2.60
2023-04-26T13:12:41.040Z,3.58
2023-04-26T13:15:08.809Z,2.92
2023-04-26T13:17:37.417Z,2.33
2023-04-26T13:20:06.630Z,2.80
2023-04-26T13:25:01.228Z,3.08
2023-04-26T13:27:30.526Z,2.80
2023-04-26T13:29:58.859Z,2.97
2023-04-26T13:32:26.432Z,2.58
2023-04-26T13:34:55.014Z,2.92
2023-04-26T13:37:24.660Z,3.50
2023-04-26T13:39:51.935Z,2.50
2023-04-26T13:42:19.278Z,3.03
2023-04-26T13:44:46.552Z,3.03
2023-04-26T13:47:13.819Z,2.67
2023-04-26T13:49:44.865Z,2.95
2023-04-26T13:52:12.759Z,2.55
2023-04-26T13:54:40.174Z,2.58
2023-04-26T13:57:07.460Z,2.63
2023-04-26T13:59:34.712Z,2.90
2023-04-26T14:02:02.082Z,3.17
2023-04-26T14:04:30.141Z,2.28
2023-04-26T14:06:57.658Z,2.70
2023-04-26T14:09:24.923Z,3.35
2023-04-26T14:12:04.445Z,2.97
2023-04-26T14:14:35.554Z,3.53
2023-04-26T14:17:02.812Z,2.55
2023-04-26T14:19:30.262Z,3.10
2023-04-26T14:21:57.496Z,3.05
2023-04-26T14:24:25.652Z,2.90
2023-04-26T14:26:52.955Z,3.10
2023-04-26T14:29:20.419Z,2.88
2023-04-26T14:31:47.750Z,3.25
2023-04-26T14:34:15.097Z,3.30
2023-04-26T14:36:42.562Z,2.72
2023-04-26T14:39:09.962Z,3.03
2023-04-26T14:41:37.403Z,3.40
2023-04-26T14:44:04.671Z,2.85
2023-04-26T14:46:31.949Z,2.90
2023-04-26T14:48:59.269Z,3.67
2023-04-26T14:51:27.344Z,2.65
2023-04-26T14:53:54.613Z,3.00
2023-04-26T14:56:21.989Z,3.35
2023-04-26T14:58:49.309Z,2.97
2023-04-26T15:01:16.563Z,2.97
2023-04-26T15:03:44.095Z,4.25
2023-04-26T15:06:11.506Z,2.95
2023-04-26T15:08:38.863Z,3.25
2023-04-26T15:11:06.189Z,3.45
2023-04-26T15:13:33.587Z,3.45
2023-04-26T15:16:07.509Z,3.80
2023-04-26T15:18:35.374Z,3.47
2023-04-26T15:21:02.807Z,4.43
2023-04-26T15:23:30.225Z,2.80
2023-04-26T15:26:02.201Z,2.88
2023-04-26T15:28:29.502Z,2.83
2023-04-26T15:31:03.824Z,4.20
2023-04-26T15:33:31.582Z,3.20
2023-04-26T15:35:58.795Z,5.40
2023-04-26T15:38:27.224Z,3.00
2023-04-26T15:40:54.855Z,2.47
2023-04-26T15:43:22.157Z,2.83
2023-04-26T15:45:49.707Z,2.30
2023-04-26T15:48:17.562Z,2.58
2023-04-26T15:50:44.899Z,2.75
2023-04-26T15:53:12.368Z,3.50
2023-04-26T15:55:39.618Z,2.65
2023-04-26T15:58:06.964Z,2.90
2023-04-26T16:00:34.258Z,2.45
2023-04-26T16:03:02.138Z,2.53
2023-04-26T16:05:31.534Z,2.38
2023-04-26T16:10:27.273Z,2.80
2023-04-26T16:12:54.526Z,2.30
2023-04-26T16:15:21.860Z,3.40
2023-04-26T16:17:49.136Z,2.60
2023-04-26T16:20:16.418Z,7.15
2023-04-26T16:22:45.191Z,2.50
2023-04-26T16:25:12.650Z,2.67
2023-04-26T16:27:39.904Z,2.45
2023-04-26T16:30:07.460Z,2.63
2023-04-26T16:32:34.802Z,1.88
2023-04-26T16:35:02.433Z,2.30
2023-04-26T16:37:29.668Z,1.73
2023-04-26T16:39:57.210Z,3.03
2023-04-26T16:42:24.525Z,2.40
2023-04-26T16:44:52.166Z,2.58
2023-04-26T16:47:19.449Z,2.60
2023-04-26T16:49:46.717Z,2.17
2023-04-26T16:52:14.046Z,2.53
2023-04-26T16:54:41.817Z,2.50
2023-04-26T16:57:10.974Z,2.83
2023-04-26T16:59:38.273Z,2.60
2023-04-26T17:02:06.063Z,2.80
2023-04-26T17:04:34.275Z,2.70
2023-04-26T17:07:01.750Z,2.42
2023-04-26T17:09:29.064Z,2.47
2023-04-26T17:11:56.414Z,2.35
2023-04-26T17:14:23.681Z,2.22
2023-04-26T17:16:50.921Z,3.25
2023-04-26T17:19:18.235Z,2.78
2023-04-26T17:21:45.803Z,3.10
2023-04-26T17:24:13.097Z,4.28
2023-04-26T17:26:40.364Z,3.28
2023-04-26T17:29:07.692Z,3.78
2023-04-26T17:31:34.960Z,3.13
2023-04-26T17:34:04.708Z,2.63
2023-04-26T17:36:32.347Z,2.72
2023-04-26T17:38:59.610Z,2.72
2023-04-26T17:41:26.837Z,2.40
2023-04-26T17:43:54.093Z,2.70
2023-04-26T17:46:21.570Z,2.60
2023-04-26T17:48:49.086Z,4.05
2023-04-26T17:51:16.336Z,3.95
2023-04-26T17:53:43.572Z,5.20
2023-04-26T17:56:10.991Z,2.83
2023-04-26T17:58:38.239Z,3.25
2023-04-26T18:01:05.672Z,3.03
2023-04-26T18:03:35.917Z,3.15
2023-04-26T18:06:04.308Z,3.33
2023-04-26T18:08:31.666Z,4.60
2023-04-26T18:10:59.258Z,2.50
2023-04-26T18:13:26.538Z,2.40
2023-04-26T18:15:55.964Z,2.85
2023-04-26T18:18:25.712Z,2.78
2023-04-26T18:20:54.429Z,2.88
2023-04-26T18:23:21.939Z,3.65
2023-04-26T18:25:50.465Z,3.05
2023-04-26T18:28:17.752Z,3.40
2023-04-26T18:30:44.960Z,2.78
2023-04-26T18:33:12.374Z,2.63
2023-04-26T18:35:39.594Z,2.92
2023-04-26T18:38:06.898Z,3.50
2023-04-26T18:40:34.167Z,2.80
2023-04-26T18:43:01.485Z,2.90
2023-04-26T18:45:28.756Z,2.92
2023-04-26T18:47:56.311Z,3.22
2023-04-26T18:50:23.752Z,3.00
2023-04-26T18:52:50.995Z,3.25
2023-04-26T18:55:18.272Z,2.85
2023-04-26T18:57:45.697Z,4.55
2023-04-26T19:00:13.217Z,3.20
2023-04-26T19:02:41.104Z,2.90
2023-04-26T19:05:15.794Z,2.70
2023-04-26T19:07:43.253Z,3.03
2023-04-26T19:10:10.884Z,3.45
2023-04-26T19:12:38.082Z,3.30
2023-04-26T19:15:05.704Z,2.88
2023-04-26T19:17:33.439Z,3.15
2023-04-26T19:20:00.789Z,2.72
2023-04-26T19:22:28.185Z,2.90
2023-04-26T19:24:55.493Z,3.88
2023-04-26T19:27:22.813Z,3.40
2023-04-26T19:29:50.265Z,4.13
2023-04-26T19:32:19.794Z,3.80
2023-04-26T19:34:47.260Z,4.22
2023-04-26T19:37:14.523Z,4.10
2023-04-26T19:39:41.803Z,3.25
2023-04-26T19:42:09.047Z,3.25
2023-04-26T19:44:36.361Z,3.85
2023-04-26T19:49:31.660Z,3.90
2023-04-26T19:51:58.926Z,4.05
2023-04-26T19:54:26.371Z,3.80
2023-04-26T19:56:53.697Z,3.78
2023-04-26T19:59:21.357Z,3.83
2023-04-26T20:01:49.231Z,3.72
2023-04-26T20:04:17.935Z,3.88
2023-04-26T20:06:45.483Z,4.35
2023-04-26T20:09:13.254Z,4.03
2023-04-26T20:11:40.542Z,4.00
2023-04-26T20:14:07.751Z,4.60
2023-04-26T20:16:35.464Z,4.47
2023-04-26T20:19:02.758Z,4.85
2023-04-26T20:21:29.938Z,4.38
2023-04-26T20:23:57.222Z,5.10
2023-04-26T20:26:24.945Z,3.92
2023-04-26T20:28:52.218Z,4.25
2023-04-26T20:31:19.531Z,4.82
2023-04-26T20:33:46.863Z,4.20
2023-04-26T20:36:14.923Z,4.28
2023-04-26T20:38:42.557Z,4.18
2023-04-26T20:41:10.006Z,4.13
2023-04-26T20:43:37.257Z,4.07
2023-04-26T20:46:04.641Z,4.60
2023-04-26T20:48:31.867Z,4.53
2023-04-26T20:51:00.833Z,4.13
2023-04-26T20:53:28.187Z,4.07
2023-04-26T20:55:55.477Z,4.00
2023-04-26T20:58:22.797Z,4.60
2023-04-26T21:00:55.614Z,4.10
2023-04-26T21:03:23.235Z,4.40
2023-04-26T21:05:50.631Z,4.47
2023-04-26T21:08:17.922Z,5.03
2023-04-26T21:10:45.197Z,5.30
2023-04-26T21:13:13.822Z,4.13
2023-04-26T21:15:41.188Z,6.55
2023-04-26T21:18:08.527Z,4.68
2023-04-26T21:20:35.836Z,5.15
2023-04-26T21:23:03.077Z,5.80
2023-04-26T21:25:30.579Z,7.10
2023-04-26T21:27:58.841Z,6.93
2023-04-26T21:30:26.721Z,6.80
2023-04-26T21:32:53.975Z,7.85
2023-04-26T21:35:21.676Z,6.63
2023-04-26T21:37:48.927Z,7.13
2023-04-26T21:40:16.233Z,6.65
2023-04-26T21:42:48.836Z,7.43
2023-04-26T21:45:21.699Z,7.07
2023-04-26T21:47:48.980Z,6.72
2023-04-26T21:50:16.325Z,6.30
2023-04-26T21:52:43.584Z,7.05
2023-04-26T21:55:11.129Z,6.40
2023-04-26T21:57:39.008Z,6.57
2023-04-26T22:00:11.477Z,7.07
2023-04-26T22:02:41.476Z,6.78
2023-04-26T22:05:09.216Z,6.75
2023-04-26T22:07:36.424Z,6.72
2023-04-26T22:10:03.896Z,7.30
2023-04-26T22:12:31.389Z,6.55
2023-04-26T22:14:58.901Z,7.28
2023-04-26T22:17:26.387Z,6.80
2023-04-26T22:19:55.503Z,8.50
2023-04-26T22:22:22.741Z,7.47
2023-04-26T22:24:51.470Z,8.20
2023-04-26T22:27:18.745Z,8.75
2023-04-26T22:29:45.989Z,9.50
2023-04-26T22:32:13.357Z,8.98
2023-04-26T22:34:43.493Z,9.43
2023-04-26T22:37:20.872Z,9.43
2023-04-26T22:39:49.356Z,10.02
2023-04-26T22:42:16.658Z,9.38
2023-04-26T22:44:43.957Z,9.60
2023-04-26T22:47:11.206Z,10.55
2023-04-26T22:49:38.449Z,10.25
2023-04-26T22:52:12.101Z,10.02
2023-04-26T22:54:47.628Z,10.55
2023-04-26T22:57:14.868Z,9.43
2023-04-26T22:59:42.106Z,9.77
2023-04-26T23:02:09.455Z,8.38
2023-04-26T23:04:36.718Z,9.13
2023-04-26T23:07:03.987Z,8.85
2023-04-26T23:09:31.282Z,8.82
2023-04-26T23:11:59.378Z,8.93
2023-04-26T23:14:29.526Z,7.78
2023-04-26T23:17:00.280Z,8.50
2023-04-26T23:19:28.109Z,8.25
2023-04-26T23:21:55.579Z,8.27
2023-04-26T23:24:22.868Z,9.55
2023-04-26T23:26:50.144Z,9.13
2023-04-26T23:29:17.388Z,7.95
2023-04-26T23:31:44.684Z,8.25
2023-04-26T23:34:12.017Z,7.30
2023-04-26T23:36:39.247Z,7.28
2023-04-26T23:39:07.233Z,7.95
2023-04-26T23:41:34.432Z,6.75
2023-04-26T23:44:01.675Z,6.22
2023-04-26T23:46:28.959Z,7.10
2023-04-26T23:48:56.288Z,9.40
2023-04-26T23:51:23.561Z,9.32
2023-04-26T23:53:50.809Z,9.77
2023-04-26T23:56:18.068Z,9.80
2023-04-26T23:58:45.619Z,9.75
